createdAt,value
2023-02-17T00:00:57.496Z,96093.64
2023-02-17T00:03:25.664Z,96097.51
2023-02-17T00:05:54.131Z,96096.74
2023-02-17T00:08:22.186Z,96090.88
2023-02-17T00:10:57.748Z,96086.99
2023-02-17T00:13:25.816Z,96093.38
2023-02-17T00:15:54.301Z,96091.34
2023-02-17T00:18:23.004Z,96088.69
2023-02-17T00:20:51.411Z,96087.02
2023-02-17T00:23:19.249Z,96087.45
2023-02-17T00:25:47.246Z,96083.95
2023-02-17T00:28:15.329Z,96081.20
2023-02-17T00:30:43.299Z,96075.13
2023-02-17T00:33:11.464Z,96076.02
2023-02-17T00:35:40.694Z,96077.60
2023-02-17T00:38:10.085Z,96070.17
2023-02-17T00:40:39.204Z,96069.20
2023-02-17T00:43:07.202Z,96057.56
2023-02-17T00:45:35.162Z,96049.84
2023-02-17T00:48:03.134Z,96041.23
2023-02-17T00:50:30.982Z,96038.83
2023-02-17T00:52:58.964Z,96035.63
2023-02-17T00:55:26.961Z,96036.74
2023-02-17T00:57:54.936Z,96037.22
2023-02-17T01:00:22.866Z,96035.85
2023-02-17T01:02:50.784Z,96035.91
2023-02-17T01:05:18.760Z,96028.11
2023-02-17T01:07:47.909Z,96023.39
2023-02-17T01:10:16.238Z,96016.48
2023-02-17T01:12:44.099Z,96009.76
2023-02-17T01:15:12.033Z,96007.02
2023-02-17T01:17:39.971Z,96011.63
2023-02-17T01:20:08.264Z,96006.90
2023-02-17T01:22:38.237Z,96005.18
2023-02-17T01:25:06.617Z,96006.74
2023-02-17T01:27:35.498Z,96005.43
2023-02-17T01:30:04.964Z,96003.70
2023-02-17T01:32:33.001Z,96010.48
2023-02-17T01:35:01.064Z,96010.48
2023-02-17T01:37:29.048Z,96012.52
2023-02-17T01:39:56.901Z,96016.13
2023-02-17T01:42:24.777Z,96012.54
2023-02-17T01:45:11.426Z,96008.84
2023-02-17T01:47:39.334Z,96010.52
2023-02-17T01:50:08.575Z,96010.28
2023-02-17T01:52:37.609Z,96011.95
2023-02-17T01:55:08.402Z,96008.40
2023-02-17T01:57:38.578Z,96008.23
2023-02-17T02:00:08.411Z,96006.25
2023-02-17T02:02:47.644Z,96006.09
2023-02-17T02:05:18.001Z,96005.80
2023-02-17T02:07:47.475Z,96005.67
2023-02-17T02:10:16.402Z,95996.41
2023-02-17T02:12:44.909Z,95997.41
2023-02-17T02:15:15.072Z,95995.06
2023-02-17T02:17:55.262Z,96001.45
2023-02-17T02:20:42.198Z,95998.28
2023-02-17T02:23:10.111Z,95995.42
2023-02-17T02:25:56.559Z,95995.53
2023-02-17T02:28:43.445Z,95987.27
2023-02-17T02:31:14.502Z,95986.86
2023-02-17T02:33:54.321Z,95986.74
2023-02-17T02:36:22.202Z,95981.70
2023-02-17T02:38:58.856Z,95983.35
2023-02-17T02:41:33.686Z,95985.92
2023-02-17T02:44:04.579Z,95984.96
2023-02-17T02:46:32.464Z,95982.92
2023-02-17T02:49:01.000Z,95983.64
2023-02-17T02:51:35.815Z,95984.79
2023-02-17T02:54:19.546Z,95979.11
2023-02-17T02:57:07.276Z,95980.08
2023-02-17T02:59:35.993Z,95978.89
2023-02-17T03:02:13.316Z,95979.11
2023-02-17T03:05:01.556Z,95982.77
2023-02-17T03:07:39.658Z,95987.15
2023-02-17T03:10:09.032Z,95985.73
2023-02-17T03:12:38.224Z,95989.58
2023-02-17T03:15:12.559Z,95991.38
2023-02-17T03:17:40.716Z,95987.87
2023-02-17T03:20:09.639Z,95991.25
2023-02-17T03:22:42.860Z,95990.14
2023-02-17T03:25:10.857Z,95990.77
2023-02-17T03:27:38.842Z,95990.55
2023-02-17T03:30:08.384Z,95995.00
2023-02-17T03:32:36.602Z,95990.73
2023-02-17T03:35:04.836Z,95989.00
2023-02-17T03:37:32.849Z,95988.06
2023-02-17T03:40:00.796Z,95991.52
2023-02-17T03:42:28.795Z,95985.39
2023-02-17T03:44:56.875Z,95981.92
2023-02-17T03:47:24.833Z,95980.29
2023-02-17T03:49:52.882Z,95987.16
2023-02-17T03:52:20.811Z,95987.75
2023-02-17T03:54:48.760Z,95986.39
2023-02-17T03:57:16.855Z,95987.98
2023-02-17T03:59:44.757Z,95989.08
2023-02-17T04:02:12.668Z,95986.46
2023-02-17T04:04:40.782Z,95984.08
2023-02-17T04:07:08.675Z,95978.40
2023-02-17T04:09:36.807Z,95980.28
2023-02-17T04:12:05.117Z,95984.32
2023-02-17T04:14:33.107Z,95981.70
2023-02-17T04:17:01.099Z,95985.59
2023-02-17T04:19:29.071Z,95991.16
2023-02-17T04:21:57.245Z,95986.15
2023-02-17T04:24:25.218Z,95984.39
2023-02-17T04:26:53.226Z,95985.30
2023-02-17T04:29:21.138Z,95977.63
2023-02-17T04:31:49.175Z,95975.35
2023-02-17T04:34:17.218Z,95977.13
2023-02-17T04:36:45.118Z,95975.14
2023-02-17T04:39:13.023Z,95978.51
2023-02-17T04:41:40.993Z,95978.80
2023-02-17T04:44:08.888Z,95978.40
2023-02-17T04:46:36.864Z,95980.66
2023-02-17T04:49:04.814Z,95975.63
2023-02-17T04:51:32.680Z,95970.70
2023-02-17T04:54:00.662Z,95969.90
2023-02-17T04:56:28.594Z,95980.50
2023-02-17T04:58:56.608Z,95980.06
2023-02-17T05:01:24.595Z,95976.02
2023-02-17T05:03:52.952Z,95981.35
2023-02-17T05:06:20.820Z,95992.27
2023-02-17T05:08:50.693Z,95979.02
2023-02-17T05:11:18.567Z,95984.42
2023-02-17T05:13:46.558Z,95982.27
2023-02-17T05:16:14.686Z,95991.64
2023-02-17T05:18:42.671Z,95985.06
2023-02-17T05:21:10.643Z,95989.04
2023-02-17T05:23:41.416Z,95991.17
2023-02-17T05:26:09.474Z,95990.52
2023-02-17T05:28:37.789Z,95990.23
2023-02-17T05:31:06.722Z,95992.41
2023-02-17T05:33:34.954Z,96001.48
2023-02-17T05:36:04.760Z,95994.55
2023-02-17T05:38:33.353Z,95993.84
2023-02-17T05:41:01.308Z,95991.88
2023-02-17T05:43:29.465Z,95988.25
2023-02-17T05:46:01.675Z,95994.15
2023-02-17T05:48:29.541Z,95999.55
2023-02-17T05:50:57.610Z,95997.09
2023-02-17T05:53:25.578Z,96003.05
2023-02-17T05:55:53.762Z,96002.54
2023-02-17T05:58:21.937Z,96009.62
2023-02-17T06:00:50.237Z,96011.23
2023-02-17T06:03:18.198Z,96012.23
2023-02-17T06:05:46.838Z,96011.70
2023-02-17T06:08:14.820Z,96014.75
2023-02-17T06:10:43.631Z,96016.40
2023-02-17T06:13:11.934Z,96018.46
2023-02-17T06:15:40.899Z,96019.21
2023-02-17T06:18:08.945Z,96021.67
2023-02-17T06:20:36.859Z,96020.47
2023-02-17T06:23:05.032Z,96018.98
2023-02-17T06:25:33.047Z,96016.02
2023-02-17T06:28:01.045Z,96018.20
2023-02-17T06:30:29.229Z,96017.48
2023-02-17T06:32:58.458Z,96015.52
2023-02-17T06:35:26.757Z,96018.52
2023-02-17T06:37:54.965Z,96018.00
2023-02-17T06:40:23.692Z,96014.08
2023-02-17T06:42:51.684Z,96015.36
2023-02-17T06:45:20.254Z,96012.12
2023-02-17T06:47:48.427Z,96008.30
2023-02-17T06:50:16.387Z,96003.13
2023-02-17T06:52:44.612Z,96000.19
2023-02-17T06:55:12.712Z,96000.98
2023-02-17T06:57:40.834Z,95996.91
2023-02-17T07:00:09.058Z,95995.97
2023-02-17T07:02:40.325Z,96003.45
2023-02-17T07:05:08.687Z,95996.52
2023-02-17T07:07:36.812Z,95995.96
2023-02-17T07:10:05.618Z,95991.05
2023-02-17T07:12:33.852Z,95998.41
2023-02-17T07:15:01.795Z,96006.14
2023-02-17T07:17:30.063Z,96000.52
2023-02-17T07:19:58.092Z,96007.16
2023-02-17T07:22:26.984Z,96000.02
2023-02-17T07:24:54.994Z,96006.95
2023-02-17T07:27:23.156Z,96000.73
2023-02-17T07:29:51.298Z,96005.98
2023-02-17T07:32:19.198Z,96006.11
2023-02-17T07:34:47.401Z,96006.81
2023-02-17T07:37:15.515Z,96003.98
2023-02-17T07:39:43.666Z,96001.36
2023-02-17T07:42:11.963Z,95999.75
2023-02-17T07:44:40.751Z,96001.40
2023-02-17T07:47:09.130Z,95993.76
2023-02-17T07:49:37.235Z,95989.65
2023-02-17T07:52:06.042Z,95990.43
2023-02-17T07:54:34.176Z,95989.35
2023-02-17T07:57:02.133Z,95988.27
2023-02-17T07:59:30.217Z,95990.29
2023-02-17T08:01:58.352Z,95988.06
2023-02-17T08:04:26.738Z,95988.94
2023-02-17T08:06:55.158Z,95990.89
2023-02-17T08:09:42.018Z,95993.15
2023-02-17T08:12:33.839Z,95992.73
2023-02-17T08:15:02.549Z,95987.05
2023-02-17T08:17:30.952Z,95982.56
2023-02-17T08:20:05.854Z,95980.63
2023-02-17T08:22:36.925Z,95980.27
2023-02-17T08:25:06.454Z,95982.35
2023-02-17T08:27:34.722Z,95978.77
2023-02-17T08:30:03.685Z,95978.77
2023-02-17T08:32:31.984Z,95975.53
2023-02-17T08:35:00.012Z,95978.52
2023-02-17T08:37:30.314Z,95978.57
2023-02-17T08:40:00.442Z,95980.06
2023-02-17T08:42:29.234Z,95979.90
2023-02-17T08:44:57.278Z,95977.59
2023-02-17T08:47:25.337Z,95972.40
2023-02-17T08:49:53.501Z,95976.13
2023-02-17T08:52:21.788Z,95973.09
2023-02-17T08:54:52.557Z,95966.06
2023-02-17T08:57:21.858Z,95963.10
2023-02-17T08:59:49.988Z,95964.27
2023-02-17T09:02:18.573Z,95959.00
2023-02-17T09:04:47.214Z,95957.53
2023-02-17T09:07:17.016Z,95961.02
2023-02-17T09:09:45.486Z,95964.05
2023-02-17T09:12:13.656Z,95963.23
2023-02-17T09:14:42.155Z,95966.65
2023-02-17T09:17:10.502Z,95965.29
2023-02-17T09:19:38.964Z,95964.10
2023-02-17T09:22:07.348Z,95961.52
2023-02-17T09:24:38.893Z,95965.61
2023-02-17T09:27:07.186Z,95963.89
2023-02-17T09:29:36.887Z,95967.21
2023-02-17T09:32:08.731Z,95967.71
2023-02-17T09:34:38.061Z,95967.67
2023-02-17T09:37:11.409Z,95972.80
2023-02-17T09:39:39.556Z,95972.10
2023-02-17T09:42:16.246Z,95973.15
2023-02-17T09:44:47.644Z,95977.62
2023-02-17T09:47:19.366Z,95971.89
2023-02-17T09:49:51.312Z,95975.94
2023-02-17T09:52:32.053Z,95974.80
2023-02-17T09:55:04.511Z,95974.61
2023-02-17T09:57:36.203Z,95980.15
2023-02-17T10:00:16.477Z,95985.42
2023-02-17T10:03:04.915Z,95977.33
2023-02-17T10:05:42.363Z,95978.99
2023-02-17T10:08:10.597Z,95977.09
2023-02-17T10:10:42.622Z,95980.09
2023-02-17T10:13:15.163Z,95975.77
2023-02-17T10:15:44.989Z,95973.67
2023-02-17T10:18:16.706Z,95973.98
2023-02-17T10:20:48.133Z,95962.97
2023-02-17T10:23:19.372Z,95963.14
2023-02-17T10:26:06.391Z,95962.29
2023-02-17T10:28:44.039Z,95953.21
2023-02-17T10:31:19.847Z,95950.52
2023-02-17T10:34:08.082Z,95940.69
2023-02-17T10:36:36.052Z,95938.02
2023-02-17T10:39:14.675Z,95938.70
2023-02-17T10:41:45.871Z,95933.31
2023-02-17T10:44:17.166Z,95928.73
2023-02-17T10:46:46.125Z,95927.08
2023-02-17T10:49:27.410Z,95930.20
2023-02-17T10:52:01.137Z,95928.22
2023-02-17T10:54:38.079Z,95926.20
2023-02-17T10:57:09.428Z,95925.95
2023-02-17T10:59:41.720Z,95921.55
2023-02-17T11:02:19.010Z,95918.51
2023-02-17T11:04:49.448Z,95919.09
2023-02-17T11:07:24.007Z,95916.84
2023-02-17T11:09:53.722Z,95913.38
2023-02-17T11:12:25.635Z,95906.00
2023-02-17T11:14:55.211Z,95908.33
2023-02-17T11:17:28.580Z,95909.98
2023-02-17T11:19:58.719Z,95905.16
2023-02-17T11:22:48.213Z,95904.55
2023-02-17T11:25:25.137Z,95896.81
2023-02-17T11:27:54.864Z,95892.09
2023-02-17T11:30:23.920Z,95889.55
2023-02-17T11:32:52.699Z,95891.54
2023-02-17T11:35:36.222Z,95893.69
2023-02-17T11:38:12.097Z,95892.98
2023-02-17T11:40:40.124Z,95897.91
2023-02-17T11:43:08.449Z,95898.72
2023-02-17T11:45:41.389Z,95891.88
2023-02-17T11:48:29.998Z,95889.85
2023-02-17T11:51:00.384Z,95882.67
2023-02-17T11:53:49.752Z,95881.73
2023-02-17T11:56:19.608Z,95880.08
2023-02-17T11:58:50.429Z,95882.72
2023-02-17T12:01:30.254Z,95893.59
2023-02-17T12:04:10.532Z,95890.89
2023-02-17T12:06:40.142Z,95900.52
2023-02-17T12:09:11.074Z,95895.61
2023-02-17T12:11:48.578Z,95892.73
2023-02-17T12:14:31.132Z,95889.59
2023-02-17T12:17:19.450Z,95888.66
2023-02-17T12:19:57.210Z,95888.59
2023-02-17T12:22:33.564Z,95885.75
2023-02-17T12:25:01.577Z,95887.46
2023-02-17T12:27:53.820Z,95885.06
2023-02-17T12:30:35.655Z,95890.34
2023-02-17T12:33:22.455Z,95883.33
2023-02-17T12:35:55.488Z,95881.23
2023-02-17T12:38:39.311Z,95874.83
2023-02-17T12:41:13.410Z,95873.19
2023-02-17T12:43:47.317Z,95868.09
2023-02-17T12:46:20.440Z,95863.70
2023-02-17T12:48:54.344Z,95860.01
2023-02-17T12:51:22.379Z,95857.83
2023-02-17T12:54:02.739Z,95854.84
2023-02-17T12:56:33.753Z,95848.73
2023-02-17T12:59:15.843Z,95849.44
2023-02-17T13:01:48.769Z,95846.27
2023-02-17T13:04:18.359Z,95847.73
2023-02-17T13:07:02.133Z,95843.34
2023-02-17T13:09:30.248Z,95847.11
2023-02-17T13:12:16.859Z,95846.31
2023-02-17T13:14:50.198Z,95850.36
2023-02-17T13:17:26.486Z,95851.95
2023-02-17T13:20:04.051Z,95856.69
2023-02-17T13:22:32.491Z,95859.40
2023-02-17T13:25:01.024Z,95857.87
2023-02-17T13:27:29.060Z,95863.74
2023-02-17T13:29:59.873Z,95865.66
2023-02-17T13:32:31.910Z,95862.16
2023-02-17T13:35:07.660Z,95862.57
2023-02-17T13:37:35.651Z,95863.82
2023-02-17T13:40:16.254Z,95862.77
2023-02-17T13:42:44.692Z,95864.68
2023-02-17T13:45:31.681Z,95861.05
2023-02-17T13:48:19.259Z,95861.64
2023-02-17T13:50:52.271Z,95862.94
2023-02-17T13:53:20.666Z,95858.48
2023-02-17T13:55:48.826Z,95853.98
2023-02-17T13:58:22.097Z,95852.10
2023-02-17T14:00:51.203Z,95849.29
2023-02-17T14:03:21.846Z,95840.58
2023-02-17T14:05:50.516Z,95838.90
2023-02-17T14:08:30.475Z,95837.23
2023-02-17T14:10:59.800Z,95831.05
2023-02-17T14:13:27.959Z,95834.52
2023-02-17T14:15:58.092Z,95839.12
2023-02-17T14:18:40.519Z,95844.49
2023-02-17T14:21:10.613Z,95849.88
2023-02-17T14:23:57.427Z,95852.50
2023-02-17T14:26:44.181Z,95852.60
2023-02-17T14:29:13.550Z,95845.09
2023-02-17T14:31:43.352Z,95846.25
2023-02-17T14:34:25.626Z,95839.96
2023-02-17T14:36:53.859Z,95838.05
2023-02-17T14:39:22.385Z,95840.44
2023-02-17T14:41:50.511Z,95837.27
2023-02-17T14:44:18.596Z,95836.17
2023-02-17T14:46:46.598Z,95831.45
2023-02-17T14:49:14.744Z,95823.73
2023-02-17T14:51:42.846Z,95825.53
2023-02-17T14:54:19.954Z,95820.73
2023-02-17T14:56:47.848Z,95822.29
2023-02-17T14:59:15.963Z,95817.40
2023-02-17T15:01:43.932Z,95815.04
2023-02-17T15:04:12.067Z,95813.30
2023-02-17T15:06:45.493Z,95810.11
2023-02-17T15:09:15.353Z,95806.41
2023-02-17T15:11:45.821Z,95806.08
2023-02-17T15:14:15.248Z,95804.52
2023-02-17T15:16:43.755Z,95810.33
2023-02-17T15:19:12.434Z,95810.00
2023-02-17T15:21:43.481Z,95813.83
2023-02-17T15:24:27.995Z,95812.83
2023-02-17T15:26:58.173Z,95815.02
2023-02-17T15:29:27.599Z,95816.31
2023-02-17T15:31:57.277Z,95815.85
2023-02-17T15:34:31.828Z,95817.90
2023-02-17T15:37:00.690Z,95818.56
2023-02-17T15:39:28.791Z,95816.74
2023-02-17T15:41:59.327Z,95818.89
2023-02-17T15:44:32.034Z,95819.84
2023-02-17T15:47:00.684Z,95816.91
2023-02-17T15:49:28.760Z,95817.58
2023-02-17T15:51:56.751Z,95820.80
2023-02-17T15:54:24.660Z,95820.17
2023-02-17T15:56:52.871Z,95820.02
2023-02-17T15:59:26.807Z,95821.33
2023-02-17T16:01:56.377Z,95823.11
2023-02-17T16:04:24.263Z,95824.36
2023-02-17T16:06:52.377Z,95825.84
2023-02-17T16:09:21.753Z,95823.42
2023-02-17T16:11:51.826Z,95824.81
2023-02-17T16:14:33.587Z,95828.71
2023-02-17T16:17:02.465Z,95834.06
2023-02-17T16:19:31.767Z,95833.96
2023-02-17T16:21:59.842Z,95831.13
2023-02-17T16:24:28.212Z,95826.48
2023-02-17T16:26:56.522Z,95824.77
2023-02-17T16:29:24.592Z,95826.02
2023-02-17T16:31:52.864Z,95830.54
2023-02-17T16:34:22.380Z,95829.34
2023-02-17T16:36:51.739Z,95826.34
2023-02-17T16:39:21.611Z,95822.83
2023-02-17T16:41:49.775Z,95816.72
2023-02-17T16:44:19.369Z,95816.70
2023-02-17T16:46:48.848Z,95820.90
2023-02-17T16:49:19.454Z,95819.52
2023-02-17T16:51:47.842Z,95816.89
2023-02-17T16:54:17.134Z,95818.32
2023-02-17T16:56:49.616Z,95823.34
2023-02-17T16:59:19.955Z,95816.29
2023-02-17T17:01:48.844Z,95813.77
2023-02-17T17:04:17.538Z,95804.38
2023-02-17T17:06:49.887Z,95801.28
2023-02-17T17:09:22.111Z,95809.81
2023-02-17T17:11:50.442Z,95813.63
2023-02-17T17:14:20.657Z,95807.90
2023-02-17T17:16:52.014Z,95811.42
2023-02-17T17:19:19.886Z,95813.23
2023-02-17T17:21:49.449Z,95808.95
2023-02-17T17:24:17.820Z,95812.94
2023-02-17T17:26:46.825Z,95816.15
2023-02-17T17:29:15.718Z,95814.63
2023-02-17T17:31:45.002Z,95812.69
2023-02-17T17:34:13.353Z,95812.75
2023-02-17T17:36:42.824Z,95805.42
2023-02-17T17:39:14.891Z,95809.73
2023-02-17T17:41:43.186Z,95804.02
2023-02-17T17:44:11.199Z,95795.80
2023-02-17T17:46:39.922Z,95800.48
2023-02-17T17:49:10.608Z,95801.43
2023-02-17T17:51:39.084Z,95798.45
2023-02-17T17:54:07.761Z,95797.34
2023-02-17T17:56:43.123Z,95791.30
2023-02-17T17:59:12.616Z,95795.23
2023-02-17T18:01:40.644Z,95787.06
2023-02-17T18:04:09.606Z,95787.89
2023-02-17T18:06:40.814Z,95782.92
2023-02-17T18:09:13.303Z,95777.27
2023-02-17T18:11:45.182Z,95774.98
2023-02-17T18:14:14.334Z,95774.54
2023-02-17T18:16:43.967Z,95766.31
2023-02-17T18:19:12.574Z,95765.35
2023-02-17T18:21:40.584Z,95766.05
2023-02-17T18:24:08.550Z,95761.02
2023-02-17T18:26:36.568Z,95760.58
2023-02-17T18:29:04.826Z,95745.31
2023-02-17T18:31:32.872Z,95743.17
2023-02-17T18:34:01.057Z,95745.61
2023-02-17T18:36:29.194Z,95739.02
2023-02-17T18:38:57.218Z,95735.14
2023-02-17T18:41:26.573Z,95737.01
2023-02-17T18:43:54.845Z,95728.63
2023-02-17T18:46:24.161Z,95724.98
2023-02-17T18:48:54.401Z,95722.44
2023-02-17T18:51:23.388Z,95717.74
2023-02-17T18:53:51.552Z,95717.75
2023-02-17T18:56:21.780Z,95713.73
2023-02-17T18:58:50.861Z,95712.86
2023-02-17T19:01:23.650Z,95709.54
2023-02-17T19:03:52.124Z,95711.20
2023-02-17T19:06:21.832Z,95712.59
2023-02-17T19:08:50.999Z,95703.85
2023-02-17T19:11:19.942Z,95697.51
2023-02-17T19:13:48.162Z,95692.73
2023-02-17T19:16:17.802Z,95691.17
2023-02-17T19:18:46.516Z,95687.89
2023-02-17T19:21:15.058Z,95687.41
2023-02-17T19:23:43.351Z,95676.98
2023-02-17T19:26:12.446Z,95667.52
2023-02-17T19:28:40.445Z,95660.88
2023-02-17T19:31:10.335Z,95654.14
2023-02-17T19:33:38.802Z,95651.60
2023-02-17T19:36:10.757Z,95650.19
2023-02-17T19:38:39.428Z,95646.48
2023-02-17T19:41:08.465Z,95642.37
2023-02-17T19:43:36.969Z,95640.98
2023-02-17T19:46:05.485Z,95637.59
2023-02-17T19:48:34.558Z,95636.52
2023-02-17T19:51:05.501Z,95639.33
2023-02-17T19:53:34.246Z,95632.89
2023-02-17T19:56:13.368Z,95628.48
2023-02-17T19:58:42.185Z,95621.91
2023-02-17T20:01:14.821Z,95622.20
2023-02-17T20:03:42.845Z,95614.60
2023-02-17T20:06:12.470Z,95614.02
2023-02-17T20:08:40.497Z,95613.85
2023-02-17T20:11:09.555Z,95613.88
2023-02-17T20:13:45.708Z,95610.13
2023-02-17T20:16:16.036Z,95616.09
2023-02-17T20:18:45.584Z,95613.90
2023-02-17T20:21:15.839Z,95614.17
2023-02-17T20:23:43.909Z,95607.77
2023-02-17T20:26:16.573Z,95607.45
2023-02-17T20:28:44.954Z,95604.69
2023-02-17T20:31:13.150Z,95600.83
2023-02-17T20:33:41.416Z,95586.15
2023-02-17T20:36:10.210Z,95573.48
2023-02-17T20:38:39.417Z,95570.52
2023-02-17T20:41:08.728Z,95572.31
2023-02-17T20:43:38.246Z,95557.22
2023-02-17T20:46:06.604Z,95557.14
2023-02-17T20:48:35.107Z,95550.16
2023-02-17T20:51:04.243Z,95551.37
2023-02-17T20:53:32.174Z,95536.59
2023-02-17T20:56:00.194Z,95531.75
2023-02-17T20:58:28.116Z,95523.98
2023-02-17T21:00:56.183Z,95527.50
2023-02-17T21:03:24.090Z,95519.07
2023-02-17T21:05:52.095Z,95509.16
2023-02-17T21:08:20.160Z,95516.48
2023-02-17T21:10:48.106Z,95512.36
2023-02-17T21:13:15.954Z,95509.64
2023-02-17T21:15:44.093Z,95506.29
2023-02-17T21:18:11.984Z,95501.40
2023-02-17T21:20:39.839Z,95479.23
2023-02-17T21:23:08.340Z,95478.44
2023-02-17T21:25:36.245Z,95475.45
2023-02-17T21:28:04.302Z,95477.44
2023-02-17T21:30:32.578Z,95470.50
2023-02-17T21:33:01.064Z,95466.24
2023-02-17T21:35:29.040Z,95468.87
2023-02-17T21:37:57.147Z,95474.34
2023-02-17T21:40:25.134Z,95457.60
2023-02-17T21:43:11.538Z,95460.45
2023-02-17T21:45:39.617Z,95452.09
2023-02-17T21:48:07.879Z,95447.98
2023-02-17T21:50:36.064Z,95441.02
2023-02-17T21:53:03.989Z,95449.70
2023-02-17T21:55:32.135Z,95458.50
2023-02-17T21:58:00.113Z,95458.70
2023-02-17T22:00:28.255Z,95456.04
2023-02-17T22:02:56.252Z,95457.04
2023-02-17T22:05:24.248Z,95464.59
2023-02-17T22:07:52.213Z,95458.10
2023-02-17T22:10:20.347Z,95454.37
2023-02-17T22:12:48.377Z,95449.81
2023-02-17T22:15:16.354Z,95454.00
2023-02-17T22:17:44.539Z,95452.15
2023-02-17T22:20:12.676Z,95456.70
2023-02-17T22:22:40.712Z,95468.06
2023-02-17T22:25:08.785Z,95467.16
2023-02-17T22:27:36.903Z,95472.62
2023-02-17T22:30:05.360Z,95470.83
2023-02-17T22:32:33.428Z,95468.65
2023-02-17T22:35:01.315Z,95464.55
2023-02-17T22:37:29.319Z,95459.91
2023-02-17T22:39:57.264Z,95455.42
2023-02-17T22:42:25.195Z,95464.34
2023-02-17T22:44:53.224Z,95463.73
2023-02-17T22:47:22.746Z,95467.09
2023-02-17T22:49:50.813Z,95463.09
2023-02-17T22:52:18.712Z,95449.89
2023-02-17T22:54:46.756Z,95452.12
2023-02-17T22:57:15.084Z,95461.61
2023-02-17T22:59:43.138Z,95462.56
2023-02-17T23:02:11.113Z,95444.79
2023-02-17T23:04:39.527Z,95433.88
2023-02-17T23:07:07.463Z,95442.83
2023-02-17T23:09:35.613Z,95438.13
2023-02-17T23:12:03.601Z,95442.34
2023-02-17T23:14:36.022Z,95430.77
2023-02-17T23:17:08.634Z,95429.30
2023-02-17T23:19:37.046Z,95428.50
2023-02-17T23:22:06.435Z,95428.64
2023-02-17T23:24:35.004Z,95426.70
2023-02-17T23:27:03.402Z,95428.72
2023-02-17T23:29:32.001Z,95427.82
2023-02-17T23:32:00.063Z,95429.98
2023-02-17T23:34:28.661Z,95422.02
2023-02-17T23:36:56.653Z,95428.52
2023-02-17T23:39:24.685Z,95434.64
2023-02-17T23:41:52.539Z,95434.77
2023-02-17T23:44:20.623Z,95451.45
2023-02-17T23:46:48.649Z,95442.67
2023-02-17T23:49:17.151Z,95439.58
2023-02-17T23:51:47.043Z,95446.63
2023-02-17T23:54:15.460Z,95439.80
2023-02-17T23:56:43.852Z,95429.37
2023-02-17T23:59:12.166Z,95426.73
